Time;durP1;ratioP1;P1;durP2;ratioP2;P2;SDS_P1;SDS_P2;PMS_P1;PMS_P2;Temp;Humidity;BMP_temperature;BMP_pressure;BME280_temperature;BME280_humidity;BME280_pressure;Samples;Min_cycle;Max_cycle;Signal;HPM_P1;HPM_P2
2024/04/14 00:02:09;;;;;;;5.65;2.75;;;;;;;15.71;57.71;97237.97;5275860;27;20007;-75
2024/04/14 00:04:37;;;;;;;3.80;3.17;;;;;;;15.77;57.97;97245.13;5276251;27;20006;-72
2024/04/14 00:07:11;;;;;;;4.85;3.00;;;;;;;15.81;58.13;97238.44;5275720;27;20002;-73
2024/04/14 00:09:37;;;;;;;3.63;3.20;;;;;;;15.85;58.14;97237.00;5275912;27;20014;-75
2024/04/14 00:12:07;;;;;;;4.78;3.58;;;;;;;15.89;57.63;97240.06;5275749;27;20013;-72
2024/04/14 00:14:34;;;;;;;4.20;3.47;;;;;;;15.90;57.23;97242.50;5276245;27;20013;-73
2024/04/14 00:17:03;;;;;;;4.35;3.05;;;;;;;15.88;57.19;97239.25;5295127;27;19999;-73
2024/04/14 00:19:31;;;;;;;5.25;3.38;;;;;;;15.87;57.18;97232.38;5297484;27;20006;-73
2024/04/14 00:22:01;;;;;;;7.90;3.80;;;;;;;15.82;57.03;97222.44;5284765;27;20010;-73
2024/04/14 00:24:30;;;;;;;10.15;3.50;;;;;;;15.76;57.33;97220.59;5281027;27;20465;-73
2024/04/14 00:26:59;;;;;;;8.10;3.50;;;;;;;15.68;57.19;97214.69;5279347;27;20010;-73
2024/04/14 00:29:26;;;;;;;5.85;3.75;;;;;;;15.58;57.42;97222.97;5279793;27;20017;-73
2024/04/14 00:31:55;;;;;;;5.13;3.50;;;;;;;15.49;57.66;97222.34;5279794;27;20009;-73
2024/04/14 00:34:22;;;;;;;4.53;3.35;;;;;;;15.44;57.64;97216.88;5279978;27;20338;-73
2024/04/14 00:36:52;;;;;;;5.20;3.40;;;;;;;15.40;58.24;97215.63;5279470;27;20017;-74
2024/04/14 00:39:19;;;;;;;6.07;3.38;;;;;;;15.37;58.08;97210.75;5279540;27;20010;-75
2024/04/14 00:41:50;;;;;;;4.57;3.50;;;;;;;15.30;58.21;97220.44;5279539;27;20454;-75
2024/04/14 00:44:17;;;;;;;5.05;3.70;;;;;;;15.21;58.27;97207.47;5279593;27;20003;-75
2024/04/14 00:46:46;;;;;;;6.15;3.53;;;;;;;15.15;58.24;97208.28;5278920;27;20017;-75
2024/04/14 00:49:13;;;;;;;6.43;4.13;;;;;;;15.08;58.55;97207.41;5278906;27;20002;-75
2024/04/14 00:51:43;;;;;;;4.10;3.28;;;;;;;15.03;58.75;97200.13;5278684;27;20030;-75
2024/04/14 00:54:11;;;;;;;5.88;3.35;;;;;;;14.98;58.72;97199.09;5278951;27;20034;-75
2024/04/14 00:56:40;;;;;;;9.50;3.75;;;;;;;14.91;58.95;97190.34;5278232;27;20012;-75
2024/04/14 00:59:10;;;;;;;5.72;4.03;;;;;;;14.88;59.64;97201.25;5289034;27;19998;-76
2024/04/14 01:01:39;;;;;;;4.00;3.38;;;;;;;14.90;59.53;97194.81;5284270;27;20331;-75
2024/04/14 01:04:07;;;;;;;6.45;3.60;;;;;;;14.91;59.11;97195.59;5286250;27;20002;-75
2024/04/14 01:06:38;;;;;;;6.85;3.90;;;;;;;14.91;59.45;97201.69;5282124;27;20014;-75
2024/04/14 01:09:05;;;;;;;4.07;3.55;;;;;;;14.94;59.40;97189.97;5280865;27;20011;-75
2024/04/14 01:11:34;;;;;;;7.50;3.47;;;;;;;14.95;59.15;97202.09;5280412;27;20003;-75
2024/04/14 01:14:03;;;;;;;6.57;3.78;;;;;;;14.93;59.35;97193.59;5278877;27;20013;-75
2024/04/14 01:16:36;;;;;;;8.73;3.33;;;;;;;14.96;59.40;97191.41;5278684;27;20017;-75
2024/04/14 01:19:03;;;;;;;6.05;2.92;;;;;;;14.98;59.22;97196.47;5278427;27;20006;-75
2024/04/14 01:21:33;;;;;;;6.43;3.15;;;;;;;15.00;58.88;97189.22;5278376;27;20017;-75
2024/04/14 01:24:00;;;;;;;4.05;2.80;;;;;;;14.99;59.41;97193.63;5278486;27;20076;-73
2024/04/14 01:26:32;;;;;;;8.00;3.65;;;;;;;15.03;59.40;97194.06;5278333;27;20034;-73
2024/04/14 01:28:59;;;;;;;6.55;3.70;;;;;;;15.07;59.07;97195.28;5279043;27;19998;-73
2024/04/14 01:31:28;;;;;;;3.55;3.25;;;;;;;15.07;58.75;97187.41;5279058;27;20017;-74
2024/04/14 01:33:55;;;;;;;5.25;3.88;;;;;;;15.07;59.11;97200.56;5278612;27;20006;-73
2024/04/14 01:36:24;;;;;;;3.90;3.45;;;;;;;15.07;59.00;97194.50;5278762;27;20010;-76
2024/04/14 01:38:51;;;;;;;4.75;3.47;;;;;;;15.04;58.58;97191.25;5279685;27;20029;-73
2024/04/14 01:41:20;;;;;;;4.55;3.50;;;;;;;15.03;59.20;97194.06;5279813;27;20006;-73
2024/04/14 01:43:50;;;;;;;4.97;3.58;;;;;;;14.99;58.94;97190.19;5278613;27;20006;-73
2024/04/14 01:46:19;;;;;;;8.23;3.42;;;;;;;14.96;58.93;97199.28;5278002;27;19999;-73
2024/04/14 01:48:47;;;;;;;7.85;3.45;;;;;;;14.90;58.70;97191.38;5278404;27;20013;-74
2024/04/14 01:51:16;;;;;;;6.25;3.97;;;;;;;14.77;59.12;97195.53;5278148;27;20014;-73
2024/04/14 01:53:43;;;;;;;5.85;3.47;;;;;;;14.64;59.32;97195.47;5278373;27;20611;-73
2024/04/14 01:56:12;;;;;;;7.15;3.67;;;;;;;14.52;59.22;97191.72;5277931;27;20009;-76
2024/04/14 01:58:39;;;;;;;7.15;3.53;;;;;;;14.46;59.78;97197.75;5277853;27;19998;-76
2024/04/14 02:01:11;;;;;;;5.35;3.88;;;;;;;14.43;59.81;97183.19;5282426;27;20002;-76
2024/04/14 02:03:41;;;;;;;4.47;3.83;;;;;;;14.40;59.89;97189.63;5281641;27;20084;-73
2024/04/14 02:06:11;;;;;;;4.28;3.88;;;;;;;14.37;59.61;97190.00;5277571;27;20012;-75
2024/04/14 02:08:38;;;;;;;7.40;3.50;;;;;;;14.29;59.87;97187.53;5277455;27;20013;-73
2024/04/14 02:11:07;;;;;;;3.95;3.38;;;;;;;14.17;59.93;97189.88;5277033;27;20006;-73
2024/04/14 02:13:35;;;;;;;3.45;3.00;;;;;;;14.09;60.69;97190.00;5276530;27;20017;-73
2024/04/14 02:16:04;;;;;;;4.18;3.72;;;;;;;14.01;60.64;97183.09;5278286;27;20010;-73
2024/04/14 02:18:34;;;;;;;5.45;3.55;;;;;;;13.96;61.25;97188.06;5277389;27;20066;-73
2024/04/14 02:21:03;;;;;;;4.53;3.13;;;;;;;13.90;60.61;97183.56;5276828;27;20002;-75
2024/04/14 02:23:30;;;;;;;6.25;3.38;;;;;;;13.84;60.74;97186.13;5274402;27;20002;-74
2024/04/14 02:26:00;;;;;;;5.90;3.83;;;;;;;13.80;61.39;97181.28;5288815;27;20480;-74
2024/04/14 02:28:27;;;;;;;4.25;3.05;;;;;;;13.79;61.27;97177.00;5284424;27;20010;-73
2024/04/14 02:30:56;;;;;;;4.18;3.28;;;;;;;13.80;61.23;97183.09;5282612;27;21734;-73
2024/04/14 02:33:23;;;;;;;5.03;3.40;;;;;;;13.80;61.57;97183.09;5311664;27;20001;-73
2024/04/14 02:36:00;;;;;;;4.40;3.08;;;;;;;13.83;61.46;97187.13;5311146;27;20485;-73
2024/04/14 02:38:28;;;;;;;5.53;3.60;;;;;;;13.84;61.11;97184.34;5311862;26;20016;-73
2024/04/14 02:40:59;;;;;;;3.50;3.20;;;;;;;13.89;61.30;97189.81;5311119;27;20006;-73
2024/04/14 02:43:26;;;;;;;4.25;3.22;;;;;;;13.94;61.18;97191.88;5311792;27;20006;-74
2024/04/14 02:45:55;;;;;;;5.18;3.22;;;;;;;14.01;61.08;97192.75;5309482;27;20001;-74
2024/04/14 02:48:22;;;;;;;3.47;3.13;;;;;;;14.05;61.27;97188.75;5309946;26;20001;-74
2024/04/14 02:50:52;;;;;;;3.70;3.38;;;;;;;14.10;61.13;97190.78;5310253;26;20001;-74
2024/04/14 02:53:22;;;;;;;7.57;4.10;;;;;;;14.08;60.39;97188.38;5309094;27;20342;-73
2024/04/14 02:55:52;;;;;;;5.25;4.05;;;;;;;14.00;60.42;97186.69;5304140;27;20016;-75
2024/04/14 02:58:18;;;;;;;6.68;3.88;;;;;;;13.96;60.40;97188.06;5295967;26;20016;-74
2024/04/14 03:00:48;;;;;;;4.15;3.75;;;;;;;13.92;60.70;97180.75;5311486;27;20006;-73
2024/04/14 03:03:14;;;;;;;4.90;3.85;;;;;;;13.86;60.65;97187.56;5279691;27;20470;-74
2024/04/14 03:05:44;;;;;;;10.48;3.88;;;;;;;13.80;60.41;97189.13;5276668;27;20014;-73
2024/04/14 03:08:11;;;;;;;7.07;3.40;;;;;;;13.75;61.03;97193.31;5277115;27;20017;-73
2024/04/14 03:10:42;;;;;;;5.88;4.05;;;;;;;13.71;61.33;97189.44;5277601;27;20013;-74
2024/04/14 03:13:09;;;;;;;5.45;3.88;;;;;;;13.64;61.18;97191.19;5277076;27;20017;-74
2024/04/14 03:15:39;;;;;;;4.72;3.58;;;;;;;13.57;61.11;97184.06;5276576;27;20010;-74
2024/04/14 03:18:06;;;;;;;7.40;3.50;;;;;;;13.47;61.46;97183.56;5277003;27;20084;-74
2024/04/14 03:20:36;;;;;;;6.35;3.72;;;;;;;13.42;61.74;97183.28;5277059;27;20077;-74
2024/04/14 03:23:02;;;;;;;5.10;3.83;;;;;;;13.37;61.62;97177.81;5276937;27;20002;-73
2024/04/14 03:25:32;;;;;;;4.97;3.63;;;;;;;13.36;61.95;97181.44;5276728;27;20425;-75
2024/04/14 03:28:01;;;;;;;6.45;4.10;;;;;;;13.32;62.05;97185.41;5276839;27;20006;-73
2024/04/14 03:30:32;;;;;;;4.57;3.60;;;;;;;13.26;62.22;97180.88;5290496;27;20003;-73
2024/04/14 03:32:59;;;;;;;6.50;3.63;;;;;;;13.20;62.29;97179.78;5298930;27;20010;-74
2024/04/14 03:35:28;;;;;;;6.30;4.22;;;;;;;13.15;62.20;97174.31;5298202;27;20030;-76
2024/04/14 03:37:57;;;;;;;8.38;3.83;;;;;;;13.09;62.61;97167.97;5294130;27;20002;-74
2024/04/14 03:40:27;;;;;;;7.25;4.18;;;;;;;13.00;62.48;97169.09;5294753;27;20007;-74
2024/04/14 03:42:57;;;;;;;6.35;4.88;;;;;;;12.93;62.49;97168.19;5296791;27;20006;-74
2024/04/14 03:45:29;;;;;;;5.50;3.95;;;;;;;12.88;62.96;97174.00;5284754;27;20347;-74
2024/04/14 03:47:58;;;;;;;4.45;3.75;;;;;;;12.85;62.92;97165.66;5279335;27;20046;-73
2024/04/14 03:50:27;;;;;;;6.38;4.28;;;;;;;12.85;63.29;97168.28;5286392;27;20014;-73
2024/04/14 03:52:54;;;;;;;5.40;3.60;;;;;;;12.83;62.93;97163.22;5296720;27;20002;-73
2024/04/14 03:55:25;;;;;;;5.70;3.72;;;;;;;12.84;63.01;97164.06;5295919;27;20003;-74
2024/04/14 03:57:52;;;;;;;3.50;3.20;;;;;;;12.89;63.59;97167.75;5285034;27;20110;-74
2024/04/14 04:00:21;;;;;;;4.07;3.25;;;;;;;12.93;62.92;97162.97;5280914;27;20014;-73
2024/04/14 04:02:50;;;;;;;5.63;3.45;;;;;;;12.93;63.29;97163.78;5279968;27;20017;-73
2024/04/14 04:05:20;;;;;;;3.90;3.50;;;;;;;12.95;63.06;97168.84;5279664;27;20341;-73
2024/04/14 04:07:47;;;;;;;4.35;3.95;;;;;;;12.98;63.07;97171.06;5280097;27;20002;-73
2024/04/14 04:10:16;;;;;;;6.95;4.20;;;;;;;12.97;63.12;97170.28;5279712;27;20006;-73
2024/04/14 04:12:43;;;;;;;4.45;3.50;;;;;;;12.97;63.33;97164.22;5279999;27;20002;-74
2024/04/14 04:15:13;;;;;;;5.75;3.95;;;;;;;13.01;63.07;97172.50;5279779;27;20002;-74
2024/04/14 04:17:39;;;;;;;5.15;3.92;;;;;;;12.99;63.08;97175.34;5279989;27;20076;-74
2024/04/14 04:20:11;;;;;;;5.68;3.70;;;;;;;12.93;63.21;97176.06;5279746;27;20006;-74
2024/04/14 04:22:38;;;;;;;5.40;4.13;;;;;;;12.93;62.69;97173.44;5279558;27;20013;-74
2024/04/14 04:25:08;;;;;;;9.07;3.80;;;;;;;12.94;62.78;97177.66;5279368;27;20006;-73
2024/04/14 04:27:35;;;;;;;5.05;3.55;;;;;;;12.89;62.82;97177.41;5279409;27;20002;-73
2024/04/14 04:30:04;;;;;;;7.20;3.20;;;;;;;12.85;62.81;97184.00;5279998;27;20016;-73
2024/04/14 04:32:31;;;;;;;7.40;4.03;;;;;;;12.81;63.09;97180.13;5279486;27;20335;-73
2024/04/14 04:35:00;;;;;;;6.55;3.85;;;;;;;12.75;63.16;97179.84;5279585;27;20002;-73
2024/04/14 04:37:30;;;;;;;4.18;3.70;;;;;;;12.76;63.67;97181.47;5279378;27;20017;-73
2024/04/14 04:39:59;;;;;;;4.30;3.00;;;;;;;12.78;63.33;97176.88;5279300;27;20014;-73
2024/04/14 04:42:26;;;;;;;5.43;3.75;;;;;;;12.83;63.36;97181.56;5279252;27;20002;-73
2024/04/14 04:44:55;;;;;;;5.70;3.58;;;;;;;12.88;62.76;97179.22;5279395;27;20006;-73
2024/04/14 04:47:22;;;;;;;7.60;3.80;;;;;;;12.88;62.70;97175.78;5280022;27;20346;-73
2024/04/14 04:49:51;;;;;;;3.67;3.30;;;;;;;12.89;62.90;97183.44;5280376;27;20002;-73
2024/04/14 04:52:18;;;;;;;4.25;3.33;;;;;;;12.91;63.16;97178.03;5279395;27;20412;-73
2024/04/14 04:54:50;;;;;;;6.57;3.75;;;;;;;12.94;63.31;97175.06;5285035;27;20017;-74
2024/04/14 04:57:17;;;;;;;6.45;3.75;;;;;;;12.96;63.29;97170.44;5279294;27;20010;-73
2024/04/14 04:59:46;;;;;;;6.10;3.92;;;;;;;12.99;63.16;97180.56;5279130;27;20017;-74
2024/04/14 05:02:15;;;;;;;9.63;4.15;;;;;;;13.01;62.81;97172.50;5278862;27;20013;-74
2024/04/14 05:04:42;;;;;;;6.43;4.00;;;;;;;13.00;62.88;97169.09;5278941;27;20018;-73
2024/04/14 05:07:12;;;;;;;7.35;3.67;;;;;;;12.98;62.52;97173.69;5278297;27;20017;-74
2024/04/14 05:09:38;;;;;;;6.13;3.47;;;;;;;12.94;62.99;97161.97;5278800;27;20030;-74
2024/04/14 05:12:10;;;;;;;12.20;3.58;;;;;;;12.92;63.08;97171.78;5278895;27;20018;-73
2024/04/14 05:14:38;;;;;;;6.70;3.47;;;;;;;12.89;63.15;97175.59;5282653;27;20006;-73
2024/04/14 05:17:07;;;;;;;9.80;3.53;;;;;;;12.90;63.12;97176.41;5295252;27;20482;-73
2024/04/14 05:19:34;;;;;;;10.88;3.47;;;;;;;12.93;63.04;97176.06;5278681;27;20017;-73
2024/04/14 05:22:03;;;;;;;7.00;4.18;;;;;;;12.93;63.38;97174.25;5308916;27;20082;-73
2024/04/14 05:24:30;;;;;;;5.38;3.22;;;;;;;12.93;62.93;97182.09;5312683;27;20025;-73
2024/04/14 05:26:59;;;;;;;7.97;3.83;;;;;;;12.94;63.67;97186.34;5289399;27;20011;-73
2024/04/14 05:29:29;;;;;;;6.10;3.70;;;;;;;12.95;63.37;97187.16;5310971;26;20469;-73
2024/04/14 05:31:58;;;;;;;8.73;3.40;;;;;;;12.95;63.44;97184.53;5303585;27;20007;-73
2024/04/14 05:34:25;;;;;;;7.97;3.90;;;;;;;12.91;63.66;97183.28;5289423;27;20009;-73
2024/04/14 05:36:54;;;;;;;6.15;3.75;;;;;;;12.90;63.47;97186.88;5311763;27;20009;-73
2024/04/14 05:39:21;;;;;;;6.35;3.22;;;;;;;12.93;63.59;97184.72;5312924;26;20397;-73
2024/04/14 05:41:50;;;;;;;7.93;3.25;;;;;;;12.96;63.78;97186.97;5310875;27;20021;-74
2024/04/14 05:44:17;;;;;;;6.15;3.47;;;;;;;13.01;64.06;97182.97;5302551;27;20010;-75
2024/04/14 05:46:49;;;;;;;6.05;3.63;;;;;;;13.05;64.21;97179.81;5298944;27;20017;-73
2024/04/14 05:49:20;;;;;;;8.02;3.53;;;;;;;13.10;63.83;97190.56;5304486;27;20365;-74
2024/04/14 05:51:49;;;;;;;7.05;3.78;;;;;;;13.17;63.90;97188.03;5303927;26;20010;-74
2024/04/14 05:54:16;;;;;;;7.72;3.08;;;;;;;13.26;63.63;97196.59;5303149;27;20006;-74
2024/04/14 05:56:45;;;;;;;9.18;3.80;;;;;;;13.33;63.58;97190.47;5310305;27;20005;-74
2024/04/14 05:59:12;;;;;;;3.63;3.33;;;;;;;13.41;63.75;97189.53;5313847;26;20001;-74
2024/04/14 06:01:42;;;;;;;11.77;4.07;;;;;;;13.51;63.67;97195.31;5294056;27;20469;-73
2024/04/14 06:04:11;;;;;;;4.45;3.30;;;;;;;13.63;63.99;97197.44;5283999;27;20020;-73
2024/04/14 06:06:41;;;;;;;3.40;3.10;;;;;;;13.73;63.77;97203.16;5286471;27;20006;-74
2024/04/14 06:09:08;;;;;;;7.55;3.65;;;;;;;13.82;63.58;97199.44;5294829;26;20009;-74
2024/04/14 06:11:38;;;;;;;6.63;3.92;;;;;;;13.93;63.42;97208.63;5279481;27;20061;-76
2024/04/14 06:14:05;;;;;;;3.55;3.25;;;;;;;14.03;63.61;97206.47;5278663;27;20008;-76
2024/04/14 06:16:34;;;;;;;5.47;3.40;;;;;;;14.14;63.53;97210.41;5297122;27;20002;-76
2024/04/14 06:19:01;;;;;;;3.97;3.42;;;;;;;14.26;63.00;97211.53;5312625;26;20535;-75
2024/04/14 06:21:34;;;;;;;6.63;3.13;;;;;;;14.38;63.06;97206.56;5307804;27;20024;-76
2024/04/14 06:24:03;;;;;;;5.68;3.20;;;;;;;14.50;62.90;97209.50;5311032;26;20342;-79
2024/04/14 06:26:32;;;;;;;3.47;3.15;;;;;;;14.61;62.78;97211.63;5279127;27;20021;-77
2024/04/14 06:29:03;;;;;;;4.03;2.97;;;;;;;14.69;62.51;97208.81;5274325;27;20017;-78
2024/04/14 06:31:33;;;;;;;3.97;3.28;;;;;;;14.80;61.86;97210.09;5288085;27;20826;-78
2024/04/14 06:34:00;;;;;;;4.13;3.40;;;;;;;14.91;61.34;97216.63;5278188;27;20023;-77
2024/04/14 06:36:29;;;;;;;5.18;3.80;;;;;;;15.01;61.39;97212.63;5277597;27;20024;-77
2024/04/14 06:39:01;;;;;;;4.85;3.28;;;;;;;15.14;60.20;97211.09;5283723;27;20002;-77
2024/04/14 06:41:31;;;;;;;6.00;3.35;;;;;;;15.23;59.12;97208.09;5312377;27;20015;-75
2024/04/14 06:43:57;;;;;;;3.65;3.10;;;;;;;15.36;58.67;97209.16;5307610;27;20016;-77
2024/04/14 06:46:27;;;;;;;3.78;2.58;;;;;;;15.47;57.37;97216.47;5278568;27;20010;-74
2024/04/14 06:48:54;;;;;;;2.92;2.63;;;;;;;15.58;56.68;97213.25;5285343;27;20057;-76
2024/04/14 06:51:24;;;;;;;3.50;2.92;;;;;;;15.71;55.64;97215.16;5315040;27;20082;-75
2024/04/14 06:53:51;;;;;;;4.47;2.67;;;;;;;15.83;55.61;97218.81;5288550;27;20060;-74
2024/04/14 06:56:23;;;;;;;5.45;2.50;;;;;;;15.95;54.60;97221.66;5311744;27;20058;-75
2024/04/14 06:58:49;;;;;;;4.00;2.95;;;;;;;16.09;54.30;97219.03;5315792;26;20006;-75
2024/04/14 07:01:19;;;;;;;3.13;2.42;;;;;;;16.22;53.75;97217.25;5296856;27;20006;-74
2024/04/14 07:03:45;;;;;;;5.55;2.67;;;;;;;16.36;53.68;97214.63;5286344;27;20006;-74
2024/04/14 07:06:15;;;;;;;3.45;2.55;;;;;;;16.48;53.24;97211.13;5294375;27;20002;-73
2024/04/14 07:08:42;;;;;;;2.80;2.60;;;;;;;16.61;52.84;97212.94;5277829;27;20014;-73
2024/04/14 07:11:11;;;;;;;3.08;2.78;;;;;;;16.74;53.09;97221.84;5279372;27;20042;-73
2024/04/14 07:13:40;;;;;;;4.93;2.70;;;;;;;16.86;52.12;97215.78;5278249;27;20010;-73
2024/04/14 07:16:10;;;;;;;4.57;2.80;;;;;;;16.99;52.37;97219.38;5289502;27;20001;-75
2024/04/14 07:18:37;;;;;;;4.70;2.72;;;;;;;17.12;51.56;97214.09;5295264;26;20002;-74
2024/04/14 07:21:07;;;;;;;4.72;2.80;;;;;;;17.25;51.37;97216.69;5285282;27;20018;-74
2024/04/14 07:23:34;;;;;;;4.38;2.83;;;;;;;17.38;51.32;97209.72;5278753;27;20007;-73
2024/04/14 07:26:03;;;;;;;4.13;2.60;;;;;;;17.54;50.90;97222.44;5278831;27;20417;-73
2024/04/14 07:28:33;;;;;;;4.65;2.40;;;;;;;17.68;50.83;97220.53;5307534;26;20013;-73
2024/04/14 07:31:05;;;;;;;3.70;2.28;;;;;;;17.82;49.94;97223.91;5286707;27;20038;-76
2024/04/14 07:33:32;;;;;;;4.53;2.85;;;;;;;17.95;50.62;97223.88;5290703;27;20018;-77
2024/04/14 07:36:02;;;;;;;3.50;3.05;;;;;;;18.10;50.70;97219.09;5292974;27;20010;-79
2024/04/14 07:38:48;;;;;;;3.83;2.17;;;;;;;18.28;51.22;97222.81;5287448;27;20006;-80
2024/04/14 07:50:34;;;;;;;2.15;1.95;;;;;;;18.90;50.96;97220.25;5340271;26;20041;-79
2024/04/14 07:53:01;;;;;;;2.65;2.20;;;;;;;19.00;51.07;97219.72;5336095;26;20005;-77
2024/04/14 07:55:30;;;;;;;2.83;2.05;;;;;;;19.13;50.76;97219.56;5343597;26;20004;-77
2024/04/14 07:57:57;;;;;;;4.53;1.88;;;;;;;19.25;50.82;97212.50;5337175;26;20029;-77
2024/04/14 08:00:26;;;;;;;3.08;1.80;;;;;;;19.37;50.45;97209.91;5287495;27;20037;-76
2024/04/14 08:02:53;;;;;;;3.60;1.75;;;;;;;19.51;50.49;97210.59;5309117;27;20031;-76
2024/04/14 08:05:23;;;;;;;3.65;2.17;;;;;;;19.61;49.96;97208.19;5304128;27;20034;-76
2024/04/14 08:07:52;;;;;;;4.60;2.05;;;;;;;19.73;49.69;97208.28;5315517;26;20010;-76
2024/04/14 08:10:22;;;;;;;4.88;1.83;;;;;;;19.81;49.56;97207.13;5261405;27;20002;-75
2024/04/14 08:12:48;;;;;;;4.40;2.10;;;;;;;19.89;49.46;97204.97;5320381;27;20009;-76
2024/04/14 08:15:18;;;;;;;2.25;1.90;;;;;;;19.96;49.20;97202.22;5305616;27;20103;-77
2024/04/14 08:17:44;;;;;;;2.33;1.85;;;;;;;20.03;49.52;97208.25;5299449;26;20010;-76
2024/04/14 08:20:14;;;;;;;3.28;1.70;;;;;;;20.11;49.45;97205.25;5322017;26;20001;-75
2024/04/14 08:22:41;;;;;;;5.57;1.90;;;;;;;20.21;49.67;97209.22;5294626;27;20370;-76
2024/04/14 08:25:14;;;;;;;2.63;1.58;;;;;;;20.31;48.71;97212.06;5308866;27;20006;-75
2024/04/14 08:27:41;;;;;;;4.78;2.15;;;;;;;20.39;49.10;97211.75;5302692;26;20017;-75
2024/04/14 08:30:12;;;;;;;9.00;2.38;;;;;;;20.49;48.67;97206.69;5292110;27;20331;-75
2024/04/14 08:32:39;;;;;;;2.63;1.70;;;;;;;20.62;48.51;97215.47;5281649;27;20006;-74
2024/04/14 08:35:08;;;;;;;2.95;2.13;;;;;;;20.73;48.79;97212.03;5294908;27;20006;-75
2024/04/14 08:37:35;;;;;;;5.45;2.58;;;;;;;20.84;48.41;97208.56;5305308;26;20353;-75
2024/04/14 08:40:05;;;;;;;2.13;1.73;;;;;;;20.93;48.25;97207.16;5304335;27;20020;-72
2024/04/14 08:42:35;;;;;;;2.90;2.00;;;;;;;21.02;48.27;97209.47;5280202;27;20077;-73
2024/04/14 08:45:07;;;;;;;4.95;1.95;;;;;;;21.11;48.61;97205.41;5282991;27;20014;-75
2024/04/14 08:47:35;;;;;;;2.72;2.03;;;;;;;21.19;47.21;97210.34;5282746;26;20184;-74
2024/04/14 08:50:05;;;;;;;2.35;1.75;;;;;;;21.26;46.93;97210.22;5313185;27;20446;-73
2024/04/14 08:52:34;;;;;;;3.65;2.20;;;;;;;21.33;47.45;97211.69;5305789;26;20003;-73
2024/04/14 08:55:04;;;;;;;5.53;2.20;;;;;;;21.42;47.46;97214.78;5318607;27;20010;-76
2024/04/14 08:57:33;;;;;;;4.80;1.95;;;;;;;21.49;47.28;97218.09;5307793;27;20014;-73
2024/04/14 09:00:06;;;;;;;2.65;1.90;;;;;;;21.58;47.08;97218.53;5267862;27;20006;-76
2024/04/14 09:02:33;;;;;;;5.55;1.83;;;;;;;21.66;46.74;97210.19;5293284;27;20021;-75
2024/04/14 09:05:02;;;;;;;1.38;1.25;;;;;;;21.75;47.03;97214.09;5298776;27;20022;-75
2024/04/14 09:07:29;;;;;;;5.38;1.40;;;;;;;21.86;46.69;97207.09;5302160;27;20022;-74
2024/04/14 09:09:59;;;;;;;3.00;1.75;;;;;;;21.98;47.13;97215.03;5298411;27;20001;-73
2024/04/14 09:12:26;;;;;;;4.40;1.80;;;;;;;22.09;47.12;97219.47;5311440;27;20006;-74
2024/04/14 09:14:55;;;;;;;4.15;2.10;;;;;;;22.15;46.04;97213.19;5289364;27;20014;-76
2024/04/14 09:17:24;;;;;;;9.00;1.77;;;;;;;22.19;45.86;97214.31;5287718;27;20021;-73
2024/04/14 09:19:54;;;;;;;4.03;2.00;;;;;;;22.25;45.70;97207.25;5292905;27;20002;-73
2024/04/14 09:22:20;;;;;;;1.90;1.60;;;;;;;22.33;45.39;97216.69;5291093;27;20016;-73
2024/04/14 09:24:50;;;;;;;3.05;1.60;;;;;;;22.39;45.50;97211.22;5296699;27;20007;-73
2024/04/14 09:27:17;;;;;;;1.73;1.48;;;;;;;22.48;45.37;97211.63;5280666;27;20376;-73
2024/04/14 09:29:47;;;;;;;6.50;1.92;;;;;;;22.57;45.18;97207.50;5279696;27;20018;-73
2024/04/14 09:32:14;;;;;;;1.38;1.27;;;;;;;22.63;45.35;97211.84;5280066;27;20006;-73
2024/04/14 09:34:46;;;;;;;3.80;1.50;;;;;;;22.76;45.35;97208.03;5279030;27;20006;-73
2024/04/14 09:37:18;;;;;;;2.97;1.60;;;;;;;22.87;45.29;97216.13;5279472;27;20006;-73
2024/04/14 09:39:50;;;;;;;3.08;1.75;;;;;;;22.97;44.78;97208.28;5297766;27;20005;-72
2024/04/14 09:42:17;;;;;;;4.47;1.63;;;;;;;23.09;44.96;97210.84;5301554;27;20010;-77
2024/04/14 09:44:49;;;;;;;2.72;1.70;;;;;;;23.18;44.91;97215.53;5284397;27;20010;-74
2024/04/14 09:47:16;;;;;;;2.30;1.83;;;;;;;23.25;44.86;97215.34;5281126;27;20002;-73
2024/04/14 09:49:50;;;;;;;4.82;2.03;;;;;;;23.28;44.49;97209.50;5296773;27;20766;-73
2024/04/14 09:52:17;;;;;;;5.55;1.80;;;;;;;23.31;44.54;97209.03;5309050;27;20018;-70
2024/04/14 09:54:48;;;;;;;3.65;2.00;;;;;;;23.38;44.40;97201.66;5306950;27;20009;-73
2024/04/14 09:57:15;;;;;;;3.38;1.88;;;;;;;23.47;43.88;97195.88;5312551;27;20091;-73
2024/04/14 09:59:45;;;;;;;2.65;1.75;;;;;;;23.60;43.98;97201.63;5293182;26;20006;-73
2024/04/14 10:02:17;;;;;;;5.22;2.03;;;;;;;23.73;43.70;97197.75;5284927;27;20018;-73
2024/04/14 10:04:56;;;;;;;2.75;1.85;;;;;;;23.83;43.84;97192.56;5297433;27;20424;-74
2024/04/14 10:07:23;;;;;;;5.22;2.30;;;;;;;23.91;43.45;97206.47;5313382;27;20005;-72
2024/04/14 10:09:53;;;;;;;4.03;2.22;;;;;;;23.90;42.91;97204.84;5310956;26;20017;-73
2024/04/14 10:12:20;;;;;;;4.88;1.50;;;;;;;23.92;43.16;97208.06;5297433;27;20026;-73
2024/04/14 10:14:50;;;;;;;3.65;1.92;;;;;;;23.96;43.20;97201.97;5295320;27;20002;-72
2024/04/14 10:17:17;;;;;;;1.95;1.75;;;;;;;24.01;43.38;97195.91;5294306;27;20376;-75
2024/04/14 10:19:57;;;;;;;3.22;1.63;;;;;;;24.07;43.27;97205.53;5286147;26;20014;-73
2024/04/14 10:22:30;;;;;;;5.55;1.77;;;;;;;24.16;43.17;97198.72;5273798;27;19997;-74
2024/04/14 10:24:59;;;;;;;1.65;1.45;;;;;;;24.24;42.45;97192.88;5294182;27;20013;-73
2024/04/14 10:27:29;;;;;;;4.13;1.77;;;;;;;24.30;42.68;97187.63;5304932;27;20003;-74
2024/04/14 10:30:00;;;;;;;2.45;1.48;;;;;;;24.36;42.73;97181.25;5291767;27;20481;-73
2024/04/14 10:32:27;;;;;;;1.77;1.30;;;;;;;24.45;42.23;97182.38;5284520;27;20006;-73
2024/04/14 10:34:59;;;;;;;3.45;2.20;;;;;;;24.50;41.66;97181.66;5289965;27;20071;-75
2024/04/14 10:37:27;;;;;;;2.83;1.92;;;;;;;24.52;41.58;97174.19;5280730;27;20002;-74
2024/04/14 10:39:58;;;;;;;2.78;1.88;;;;;;;24.53;41.20;97176.59;5287037;27;20008;-75
2024/04/14 10:42:24;;;;;;;1.75;1.55;;;;;;;24.55;41.35;97174.47;5278811;27;20017;-73
2024/04/14 10:44:54;;;;;;;3.17;1.70;;;;;;;24.58;41.06;97170.50;5277149;27;20595;-74
2024/04/14 10:47:21;;;;;;;8.60;1.70;;;;;;;24.60;41.17;97165.72;5278462;27;20006;-73
2024/04/14 10:49:52;;;;;;;11.98;1.80;;;;;;;24.67;41.47;97160.94;5288208;27;20018;-73
2024/04/14 10:52:21;;;;;;;3.50;1.90;;;;;;;24.75;40.58;97167.66;5312818;27;20002;-74
2024/04/14 10:54:50;;;;;;;1.70;1.60;;;;;;;24.79;40.64;97158.06;5302965;27;20010;-73
2024/04/14 10:57:17;;;;;;;2.58;1.50;;;;;;;24.81;40.89;97163.94;5278442;27;20026;-73
2024/04/14 10:59:46;;;;;;;2.97;1.65;;;;;;;24.85;40.61;97151.69;5279657;27;20017;-73
2024/04/14 11:02:14;;;;;;;3.97;1.52;;;;;;;24.91;39.92;97160.53;5280151;27;20346;-73
2024/04/14 11:04:44;;;;;;;1.90;1.50;;;;;;;24.94;40.22;97160.81;5280566;27;20482;-74
2024/04/14 11:07:11;;;;;;;3.05;1.75;;;;;;;25.02;39.76;97157.66;5286594;27;20065;-74
2024/04/14 11:09:43;;;;;;;2.90;1.85;;;;;;;25.08;39.48;97151.28;5298761;27;20038;-73
2024/04/14 11:12:11;;;;;;;5.00;1.67;;;;;;;25.11;39.22;97144.59;5324275;27;20006;-74
2024/04/14 11:14:40;;;;;;;2.05;1.50;;;;;;;25.16;39.12;97139.25;5301077;27;20017;-73
2024/04/14 11:17:10;;;;;;;3.88;1.95;;;;;;;25.20;39.51;97131.56;5279124;27;20009;-72
2024/04/14 11:19:39;;;;;;;9.30;2.47;;;;;;;25.26;40.43;97142.00;5295105;27;20026;-70
2024/04/14 11:22:06;;;;;;;2.42;1.48;;;;;;;25.32;39.96;97129.47;5314649;27;20006;-71
2024/04/14 11:24:35;;;;;;;2.85;2.00;;;;;;;25.38;39.58;97132.94;5299371;27;20002;-71
2024/04/14 11:27:06;;;;;;;4.28;2.20;;;;;;;25.37;39.72;97124.16;5277306;27;20362;-71
2024/04/14 11:29:35;;;;;;;3.05;1.80;;;;;;;25.34;40.34;97113.19;5279749;27;20034;-71
2024/04/14 11:32:27;;;;;;;2.35;1.73;;;;;;;25.35;39.85;97123.59;5280222;27;20017;-70
2024/04/14 11:34:53;;;;;;;1.70;1.60;;;;;;;25.33;40.20;97120.41;5285499;27;20009;-70
2024/04/14 11:37:21;;;;;;;2.80;1.80;;;;;;;25.30;39.41;97118.25;5262214;27;19995;-71
2024/04/14 11:39:50;;;;;;;4.70;1.67;;;;;;;25.28;40.06;97115.06;5270806;27;20010;-71
2024/04/14 11:42:20;;;;;;;1.80;1.60;;;;;;;25.28;40.10;97107.84;5330592;27;20554;-71
2024/04/14 11:44:49;;;;;;;5.10;2.20;;;;;;;25.27;39.78;97105.41;5313330;27;20028;-69
2024/04/14 11:47:17;;;;;;;2.78;1.75;;;;;;;25.28;42.98;97105.16;5323931;27;19994;-73
2024/04/14 11:49:47;;;;;;;1.88;1.30;;;;;;;25.33;41.63;97099.03;5313213;26;20006;-71
2024/04/14 11:52:18;;;;;;;2.42;1.63;;;;;;;25.33;40.03;97099.03;5289856;27;20020;-73